createdAt,value
2022-11-16T00:02:14.802Z,13.14
2022-11-16T00:04:41.965Z,13.17
2022-11-16T00:07:09.300Z,13.05
2022-11-16T00:09:36.152Z,13.01
2022-11-16T00:12:06.553Z,13.04
2022-11-16T00:14:35.608Z,13.04
2022-11-16T00:17:03.529Z,13.10
2022-11-16T00:19:30.653Z,13.07
2022-11-16T00:21:57.745Z,13.09
2022-11-16T00:24:24.413Z,13.17
2022-11-16T00:26:54.137Z,13.32
2022-11-16T00:29:23.505Z,13.29
2022-11-16T00:31:50.934Z,13.27
2022-11-16T00:34:18.294Z,13.14
2022-11-16T00:36:45.090Z,13.14
2022-11-16T00:39:13.618Z,13.17
2022-11-16T00:41:40.958Z,13.07
2022-11-16T00:44:07.784Z,13.14
2022-11-16T00:46:34.479Z,13.07
2022-11-16T00:49:01.018Z,13.06
2022-11-16T00:51:27.531Z,13.04
2022-11-16T00:53:54.007Z,13.06
2022-11-16T00:56:20.790Z,13.04
2022-11-16T00:58:47.473Z,13.01
2022-11-16T01:01:14.615Z,13.00
2022-11-16T01:03:41.273Z,13.06
2022-11-16T01:06:12.134Z,13.03
2022-11-16T01:08:40.154Z,12.97
2022-11-16T01:11:26.512Z,13.02
2022-11-16T01:13:53.477Z,12.99
2022-11-16T01:16:22.626Z,12.99
2022-11-16T01:18:54.513Z,13.00
2022-11-16T01:21:22.810Z,13.07
2022-11-16T01:23:49.295Z,13.06
2022-11-16T01:26:15.882Z,13.05
2022-11-16T01:28:42.449Z,12.96
2022-11-16T01:31:10.023Z,12.96
2022-11-16T01:33:36.789Z,12.97
2022-11-16T01:36:03.639Z,12.89
2022-11-16T01:38:30.340Z,12.93
2022-11-16T01:40:56.919Z,13.02
2022-11-16T01:43:25.527Z,13.02
2022-11-16T01:45:52.038Z,12.89
2022-11-16T01:48:25.733Z,12.92
2022-11-16T01:50:56.016Z,13.11
2022-11-16T01:53:22.537Z,13.08
2022-11-16T01:55:49.574Z,13.19
2022-11-16T01:58:21.024Z,13.07
2022-11-16T02:00:49.114Z,12.99
2022-11-16T02:03:21.209Z,13.09
2022-11-16T02:06:08.920Z,13.12
2022-11-16T02:09:12.502Z,13.07
2022-11-16T02:11:59.126Z,13.10
2022-11-16T02:14:34.567Z,12.99
2022-11-16T02:17:27.551Z,12.94
2022-11-16T02:20:38.274Z,12.74
2022-11-16T02:23:37.282Z,12.65
2022-11-16T02:26:25.121Z,12.51
2022-11-16T02:29:28.657Z,12.51
2022-11-16T02:32:23.141Z,12.46
2022-11-16T02:34:57.516Z,12.56
2022-11-16T02:37:28.684Z,12.64
2022-11-16T02:40:00.510Z,12.63
2022-11-16T02:42:34.034Z,12.55
2022-11-16T02:45:03.038Z,12.61
2022-11-16T02:47:33.690Z,12.61
2022-11-16T02:50:10.241Z,12.54
2022-11-16T02:52:38.813Z,12.54
2022-11-16T02:55:05.485Z,12.67
2022-11-16T02:57:40.542Z,12.63
2022-11-16T03:00:09.840Z,12.58
2022-11-16T03:02:36.268Z,12.55
2022-11-16T03:05:09.858Z,12.50
2022-11-16T03:07:44.296Z,12.53
2022-11-16T03:10:11.466Z,12.64
2022-11-16T03:12:41.048Z,12.59
2022-11-16T03:15:12.273Z,12.56
2022-11-16T03:17:44.419Z,12.59
2022-11-16T03:20:17.757Z,12.67
2022-11-16T03:23:00.365Z,12.77
2022-11-16T03:25:32.668Z,12.87
2022-11-16T03:28:08.138Z,12.84
2022-11-16T03:30:41.828Z,12.88
2022-11-16T03:33:22.721Z,12.87
2022-11-16T03:36:04.588Z,12.76
2022-11-16T03:38:33.721Z,12.67
2022-11-16T03:41:06.393Z,12.55
2022-11-16T03:43:35.008Z,12.54
2022-11-16T03:46:01.821Z,12.54
2022-11-16T03:48:39.505Z,12.53
2022-11-16T03:51:08.682Z,12.53
2022-11-16T03:53:35.702Z,12.50
2022-11-16T03:56:02.284Z,12.57
2022-11-16T03:58:28.801Z,12.74
2022-11-16T04:00:55.328Z,12.77
2022-11-16T04:03:21.919Z,12.68
2022-11-16T04:06:07.532Z,12.63
2022-11-16T04:08:52.248Z,12.60
2022-11-16T04:11:38.597Z,12.53
2022-11-16T04:14:24.419Z,12.56
2022-11-16T04:17:09.208Z,12.52
2022-11-16T04:19:58.073Z,12.43
2022-11-16T04:22:49.908Z,12.46
2022-11-16T04:25:23.090Z,12.49
2022-11-16T04:28:08.217Z,12.41
2022-11-16T04:30:53.513Z,12.39
2022-11-16T04:33:38.869Z,12.36
2022-11-16T04:36:24.138Z,12.28
2022-11-16T04:38:50.648Z,12.15
2022-11-16T04:41:35.657Z,12.03
2022-11-16T04:44:02.166Z,12.08
2022-11-16T04:46:47.295Z,11.99
2022-11-16T04:49:13.856Z,12.01
2022-11-16T04:51:40.337Z,12.03
2022-11-16T04:54:06.815Z,11.94
2022-11-16T04:56:34.016Z,12.08
2022-11-16T04:59:00.481Z,11.95
2022-11-16T05:01:45.805Z,12.02
2022-11-16T05:04:12.380Z,12.04
2022-11-16T05:06:38.842Z,12.05
2022-11-16T05:09:06.440Z,12.06
2022-11-16T05:11:32.940Z,12.03
2022-11-16T05:13:59.506Z,12.07
2022-11-16T05:16:26.062Z,12.06
2022-11-16T05:19:11.032Z,11.85
2022-11-16T05:21:37.513Z,11.83
2022-11-16T05:24:23.113Z,11.76
2022-11-16T05:26:49.637Z,11.69
2022-11-16T05:29:16.120Z,11.63
2022-11-16T05:31:42.646Z,11.64
2022-11-16T05:34:10.235Z,11.58
2022-11-16T05:36:37.493Z,11.69
2022-11-16T05:39:04.678Z,11.54
2022-11-16T05:41:31.286Z,11.54
2022-11-16T05:43:58.165Z,11.47
2022-11-16T05:46:25.085Z,11.50
2022-11-16T05:48:51.612Z,11.44
2022-11-16T05:51:18.097Z,11.38
2022-11-16T05:53:44.671Z,11.36
2022-11-16T05:56:14.371Z,11.33
2022-11-16T05:58:41.481Z,11.25
2022-11-16T06:01:08.502Z,11.38
2022-11-16T06:03:36.634Z,11.36
2022-11-16T06:06:05.102Z,11.25
2022-11-16T06:08:32.343Z,11.33
2022-11-16T06:11:07.762Z,11.35
2022-11-16T06:13:34.818Z,11.38
2022-11-16T06:16:02.136Z,11.31
2022-11-16T06:18:28.968Z,11.23
2022-11-16T06:20:55.861Z,11.20
2022-11-16T06:23:22.488Z,11.18
2022-11-16T06:25:55.563Z,11.26
2022-11-16T06:28:23.333Z,11.23
2022-11-16T06:30:50.350Z,11.18
2022-11-16T06:33:17.541Z,11.09
2022-11-16T06:35:45.003Z,11.00
2022-11-16T06:38:18.291Z,11.03
2022-11-16T06:40:46.371Z,11.04
2022-11-16T06:43:12.892Z,10.99
2022-11-16T06:45:39.644Z,11.03
2022-11-16T06:48:06.271Z,11.11
2022-11-16T06:50:32.759Z,11.05
2022-11-16T06:53:00.903Z,11.01
2022-11-16T06:55:28.791Z,10.95
2022-11-16T06:57:55.382Z,10.97
2022-11-16T07:00:22.030Z,11.03
2022-11-16T07:02:48.746Z,10.98
2022-11-16T07:05:15.385Z,11.00
2022-11-16T07:07:42.123Z,10.90
2022-11-16T07:10:09.100Z,10.95
2022-11-16T07:12:35.605Z,10.91
2022-11-16T07:15:02.134Z,10.90
2022-11-16T07:17:28.784Z,10.89
2022-11-16T07:19:55.404Z,10.83
2022-11-16T07:22:21.993Z,10.82
2022-11-16T07:24:48.516Z,10.95
2022-11-16T07:27:15.055Z,10.93
2022-11-16T07:29:42.036Z,10.99
2022-11-16T07:32:08.542Z,10.94
2022-11-16T07:34:35.039Z,10.95
2022-11-16T07:37:01.610Z,10.93
2022-11-16T07:39:28.102Z,11.10
2022-11-16T07:41:54.699Z,11.05
2022-11-16T07:44:21.320Z,11.08
2022-11-16T07:46:48.612Z,11.10
2022-11-16T07:49:17.529Z,11.09
2022-11-16T07:51:45.813Z,11.14
2022-11-16T07:54:14.729Z,11.13
2022-11-16T07:56:41.813Z,11.12
2022-11-16T07:59:08.911Z,11.18
2022-11-16T08:01:35.481Z,11.15
2022-11-16T08:04:02.641Z,11.19
2022-11-16T08:06:31.230Z,11.17
2022-11-16T08:08:58.925Z,11.22
2022-11-16T08:11:26.530Z,11.23
2022-11-16T08:13:53.139Z,11.39
2022-11-16T08:16:21.685Z,11.39
2022-11-16T08:18:49.029Z,11.42
2022-11-16T08:21:17.763Z,11.49
2022-11-16T08:23:47.546Z,11.57
2022-11-16T08:26:16.941Z,11.53
2022-11-16T08:28:45.459Z,11.59
2022-11-16T08:31:15.581Z,11.61
2022-11-16T08:33:42.408Z,11.64
2022-11-16T08:36:14.454Z,11.66
2022-11-16T08:38:41.139Z,11.77
2022-11-16T08:41:07.921Z,11.73
2022-11-16T08:43:35.797Z,11.74
2022-11-16T08:46:03.138Z,11.78
2022-11-16T08:48:29.859Z,11.91
2022-11-16T08:51:17.377Z,11.93
2022-11-16T08:53:45.641Z,11.97
2022-11-16T08:56:13.686Z,11.99
2022-11-16T08:58:43.559Z,12.09
2022-11-16T09:01:12.380Z,12.10
2022-11-16T09:03:39.587Z,12.15
2022-11-16T09:06:07.036Z,12.20
2022-11-16T09:08:34.889Z,12.19
2022-11-16T09:11:08.805Z,12.30
2022-11-16T09:13:35.792Z,12.38
2022-11-16T09:16:03.091Z,12.36
2022-11-16T09:18:30.657Z,12.43
2022-11-16T09:20:57.375Z,12.43
2022-11-16T09:23:25.674Z,12.40
2022-11-16T09:25:53.394Z,12.39
2022-11-16T09:28:21.349Z,12.44
2022-11-16T09:30:50.745Z,12.47
2022-11-16T09:33:17.728Z,12.55
2022-11-16T09:35:44.325Z,12.52
2022-11-16T09:38:14.870Z,12.61
2022-11-16T09:40:48.306Z,12.63
2022-11-16T09:43:20.987Z,12.67
2022-11-16T09:46:20.376Z,12.74
2022-11-16T09:48:48.451Z,12.92
2022-11-16T09:51:17.093Z,12.97
2022-11-16T09:54:14.598Z,12.99
2022-11-16T09:56:42.352Z,13.00
2022-11-16T09:59:12.186Z,13.04
2022-11-16T10:01:47.174Z,13.05
2022-11-16T10:04:16.551Z,13.10
2022-11-16T10:06:52.623Z,13.10
2022-11-16T10:09:21.137Z,13.13
2022-11-16T10:11:55.457Z,13.12
2022-11-16T10:14:24.932Z,13.14
2022-11-16T10:17:06.562Z,13.27
2022-11-16T10:19:58.693Z,13.25
2022-11-16T10:22:31.430Z,13.32
2022-11-16T10:24:59.574Z,13.33
2022-11-16T10:27:47.553Z,13.45
2022-11-16T10:30:20.143Z,13.51
2022-11-16T10:32:53.772Z,13.58
2022-11-16T10:35:30.405Z,13.55
2022-11-16T10:37:59.808Z,13.60
2022-11-16T10:40:36.214Z,13.63
2022-11-16T10:43:15.526Z,13.64
2022-11-16T10:46:01.498Z,13.79
2022-11-16T10:49:01.829Z,13.79
2022-11-16T10:51:28.379Z,13.84
2022-11-16T10:53:56.041Z,13.95
2022-11-16T10:56:37.615Z,13.88
2022-11-16T10:59:10.015Z,13.93
2022-11-16T11:01:50.086Z,13.91
2022-11-16T11:04:31.266Z,13.92
2022-11-16T11:07:21.974Z,13.94
2022-11-16T11:09:57.406Z,14.06
2022-11-16T11:12:41.492Z,14.24
2022-11-16T11:15:11.172Z,14.37
2022-11-16T11:17:43.456Z,14.36
2022-11-16T11:20:16.237Z,14.39
2022-11-16T11:22:49.090Z,14.35
2022-11-16T11:25:29.378Z,14.45
2022-11-16T11:28:21.371Z,14.47
2022-11-16T11:31:02.838Z,14.46
2022-11-16T11:33:49.400Z,14.52
2022-11-16T11:36:22.660Z,14.62
2022-11-16T11:39:03.370Z,14.62
2022-11-16T11:41:36.495Z,14.66
2022-11-16T11:44:29.718Z,14.77
2022-11-16T11:50:44.579Z,14.82
2022-11-16T11:53:29.558Z,14.88
2022-11-16T11:55:58.852Z,14.94
2022-11-16T11:58:38.749Z,14.95
2022-11-16T12:01:26.999Z,15.09
2022-11-16T12:04:11.964Z,14.96
2022-11-16T12:06:47.405Z,15.08
2022-11-16T12:09:35.300Z,15.13
2022-11-16T12:12:13.416Z,15.16
2022-11-16T12:15:08.573Z,15.13
2022-11-16T12:17:35.066Z,15.14
2022-11-16T12:20:40.519Z,15.16
2022-11-16T12:23:22.269Z,15.11
2022-11-16T12:26:19.535Z,15.17
2022-11-16T12:28:58.309Z,15.22
2022-11-16T12:31:42.136Z,15.09
2022-11-16T12:34:27.953Z,15.13
2022-11-16T12:37:10.978Z,15.06
2022-11-16T12:39:53.300Z,15.18
2022-11-16T12:42:45.334Z,15.40
2022-11-16T12:45:32.204Z,15.40
2022-11-16T12:48:08.817Z,15.38
2022-11-16T12:50:45.456Z,15.32
2022-11-16T12:53:33.721Z,15.27
2022-11-16T12:56:34.219Z,15.23
2022-11-16T12:59:19.476Z,15.16
2022-11-16T13:02:00.640Z,15.14
2022-11-16T13:04:43.187Z,15.16
2022-11-16T13:07:12.988Z,15.25
2022-11-16T13:09:49.251Z,15.27
2022-11-16T13:12:23.457Z,15.40
2022-11-16T13:14:53.034Z,15.42
2022-11-16T13:17:22.868Z,15.27
2022-11-16T13:20:05.543Z,15.41
2022-11-16T13:22:36.608Z,15.32
2022-11-16T13:25:03.784Z,15.46
2022-11-16T13:27:59.558Z,15.65
2022-11-16T13:30:35.079Z,15.38
2022-11-16T13:33:25.850Z,15.33
2022-11-16T13:35:52.445Z,15.31
2022-11-16T13:38:54.094Z,15.50
2022-11-16T13:41:42.063Z,15.51
2022-11-16T13:44:20.718Z,15.50
2022-11-16T13:46:55.797Z,15.46
2022-11-16T13:49:28.864Z,15.45
2022-11-16T13:52:07.041Z,15.38
2022-11-16T13:54:48.986Z,15.44
2022-11-16T13:57:34.453Z,15.53
2022-11-16T14:00:00.944Z,15.54
2022-11-16T14:02:33.573Z,15.49
2022-11-16T14:05:36.853Z,15.48
2022-11-16T14:08:37.128Z,15.62
2022-11-16T14:11:05.365Z,15.60
2022-11-16T14:13:47.482Z,15.77
2022-11-16T14:16:20.184Z,15.52
2022-11-16T14:18:46.751Z,15.42
2022-11-16T14:21:40.361Z,15.42
2022-11-16T14:24:25.005Z,15.43
2022-11-16T14:27:06.672Z,15.56
2022-11-16T14:30:02.795Z,15.57
2022-11-16T14:32:39.783Z,15.57
2022-11-16T14:35:32.683Z,15.58
2022-11-16T14:38:03.343Z,15.69
2022-11-16T14:40:43.028Z,15.63
2022-11-16T14:43:19.813Z,15.56
2022-11-16T14:45:54.043Z,15.48
2022-11-16T14:48:25.924Z,15.45
2022-11-16T14:51:08.690Z,15.45
2022-11-16T14:53:39.395Z,15.57
2022-11-16T14:56:12.137Z,15.60
2022-11-16T14:58:39.537Z,15.63
2022-11-16T15:01:14.782Z,15.53
2022-11-16T15:03:54.263Z,15.66
2022-11-16T15:06:21.885Z,15.70
2022-11-16T15:08:54.263Z,15.64
2022-11-16T15:11:49.608Z,15.62
2022-11-16T15:14:25.841Z,15.60
2022-11-16T15:16:55.428Z,15.62
2022-11-16T15:19:24.076Z,15.65
2022-11-16T15:21:56.395Z,15.66
2022-11-16T15:24:32.027Z,15.54
2022-11-16T15:27:23.641Z,15.52
2022-11-16T15:29:50.750Z,15.55
2022-11-16T15:32:17.941Z,15.60
2022-11-16T15:34:54.489Z,15.68
2022-11-16T15:37:31.578Z,15.66
2022-11-16T15:40:00.049Z,15.61
2022-11-16T15:42:28.359Z,15.69
2022-11-16T15:44:56.150Z,15.72
2022-11-16T15:47:23.720Z,15.61
2022-11-16T15:49:53.001Z,15.60
2022-11-16T15:52:56.237Z,15.48
2022-11-16T15:55:28.975Z,15.42
2022-11-16T15:58:27.891Z,15.39
2022-11-16T16:00:55.877Z,15.33
2022-11-16T16:03:28.687Z,15.26
2022-11-16T16:05:55.909Z,15.24
2022-11-16T16:08:27.695Z,15.25
2022-11-16T16:10:59.555Z,15.22
2022-11-16T16:13:30.296Z,15.14
2022-11-16T16:16:12.375Z,15.06
2022-11-16T16:18:43.272Z,15.04
2022-11-16T16:21:11.122Z,15.04
2022-11-16T16:23:46.621Z,15.18
2022-11-16T16:26:14.955Z,15.12
2022-11-16T16:28:41.800Z,15.10
2022-11-16T16:31:09.396Z,15.07
2022-11-16T16:33:37.032Z,15.10
2022-11-16T16:36:04.373Z,14.94
2022-11-16T16:38:31.640Z,14.86
2022-11-16T16:41:04.149Z,14.79
2022-11-16T16:43:32.228Z,14.75
2022-11-16T16:46:05.742Z,14.70
2022-11-16T16:48:33.306Z,14.72
2022-11-16T16:51:00.118Z,14.76
2022-11-16T16:53:29.854Z,14.77
2022-11-16T16:55:57.645Z,14.79
2022-11-16T16:58:24.977Z,14.92
2022-11-16T17:00:56.920Z,14.85
2022-11-16T17:03:26.810Z,14.92
2022-11-16T17:06:00.785Z,14.92
2022-11-16T17:08:33.283Z,14.82
2022-11-16T17:11:01.253Z,14.81
2022-11-16T17:13:29.605Z,14.70
2022-11-16T17:15:56.867Z,14.70
2022-11-16T17:18:25.259Z,14.65
2022-11-16T17:20:52.974Z,14.64
2022-11-16T17:23:20.762Z,14.57
2022-11-16T17:25:48.618Z,14.53
2022-11-16T17:28:15.651Z,14.58
2022-11-16T17:30:44.743Z,14.57
2022-11-16T17:33:12.099Z,14.54
2022-11-16T17:35:41.283Z,14.60
2022-11-16T17:38:10.699Z,14.66
2022-11-16T17:40:37.336Z,14.61
2022-11-16T17:43:04.804Z,14.60
2022-11-16T17:45:31.570Z,14.59
2022-11-16T17:47:59.401Z,14.59
2022-11-16T17:50:27.407Z,14.61
2022-11-16T17:52:55.376Z,14.53
2022-11-16T17:55:23.156Z,14.47
2022-11-16T17:57:52.412Z,14.54
2022-11-16T18:00:20.305Z,14.53
2022-11-16T18:02:47.804Z,14.51
2022-11-16T18:05:15.860Z,14.54
2022-11-16T18:07:43.654Z,14.48
2022-11-16T18:10:12.721Z,14.56
2022-11-16T18:12:43.214Z,14.54
2022-11-16T18:17:57.721Z,14.53
2022-11-16T18:20:24.354Z,14.51
2022-11-16T18:22:50.916Z,14.61
2022-11-16T18:25:17.919Z,14.50
2022-11-16T18:27:44.725Z,14.43
2022-11-16T18:30:11.620Z,14.40
2022-11-16T18:32:38.498Z,14.38
2022-11-16T18:35:10.163Z,14.30
2022-11-16T18:37:37.178Z,14.24
2022-11-16T18:40:04.509Z,14.22
2022-11-16T18:42:34.032Z,14.29
2022-11-16T18:45:00.609Z,14.21
2022-11-16T18:47:27.215Z,14.18
2022-11-16T18:49:53.878Z,14.19
2022-11-16T18:52:20.395Z,14.13
2022-11-16T18:54:50.515Z,14.14
2022-11-16T18:57:17.663Z,14.13
2022-11-16T18:59:44.212Z,14.01
2022-11-16T19:02:12.509Z,14.09
2022-11-16T19:04:40.277Z,14.04
2022-11-16T19:07:07.667Z,14.03
2022-11-16T19:09:34.341Z,13.98
2022-11-16T19:12:01.003Z,14.01
2022-11-16T19:14:27.506Z,14.04
2022-11-16T19:16:57.169Z,14.02
2022-11-16T19:19:24.262Z,14.04
2022-11-16T19:21:51.899Z,14.04
2022-11-16T19:24:19.246Z,14.18
2022-11-16T19:26:45.953Z,14.15
2022-11-16T19:29:12.493Z,14.21
2022-11-16T19:31:39.020Z,14.15
2022-11-16T19:34:10.485Z,14.26
2022-11-16T19:36:37.298Z,14.21
2022-11-16T19:39:04.875Z,14.23
2022-11-16T19:41:31.637Z,14.23
2022-11-16T19:44:01.487Z,14.22
2022-11-16T19:46:31.076Z,14.22
2022-11-16T19:48:58.416Z,14.15
2022-11-16T19:51:26.262Z,14.06
2022-11-16T19:53:53.215Z,14.12
2022-11-16T19:56:21.736Z,14.06
2022-11-16T19:58:48.346Z,13.95
2022-11-16T20:01:47.542Z,13.88
2022-11-16T20:04:15.232Z,13.89
2022-11-16T20:06:41.803Z,13.84
2022-11-16T20:09:11.900Z,13.90
2022-11-16T20:11:40.684Z,13.73
2022-11-16T20:14:10.131Z,13.71
2022-11-16T20:16:39.664Z,13.73
2022-11-16T20:19:07.870Z,13.68
2022-11-16T20:21:36.868Z,13.60
2022-11-16T20:24:07.048Z,13.66
2022-11-16T20:26:35.218Z,13.66
2022-11-16T20:29:02.162Z,13.57
2022-11-16T20:31:30.554Z,13.52
2022-11-16T20:34:01.507Z,13.50
2022-11-16T20:36:29.716Z,13.50
2022-11-16T20:38:58.283Z,13.52
2022-11-16T20:41:26.986Z,13.54
2022-11-16T20:43:56.685Z,13.51
2022-11-16T20:46:25.837Z,13.51
2022-11-16T20:48:52.541Z,13.45
2022-11-16T20:51:20.592Z,13.45
2022-11-16T20:53:48.580Z,13.51
2022-11-16T20:56:17.300Z,13.51
2022-11-16T20:58:43.806Z,13.44
2022-11-16T21:01:18.593Z,13.51
2022-11-16T21:03:45.613Z,13.56
2022-11-16T21:06:13.416Z,13.49
2022-11-16T21:08:41.013Z,13.59
2022-11-16T21:11:15.587Z,13.51
2022-11-16T21:14:00.967Z,13.43
2022-11-16T21:16:27.515Z,13.44
2022-11-16T21:18:55.089Z,13.39
2022-11-16T21:21:22.203Z,13.42
2022-11-16T21:23:51.909Z,13.47
2022-11-16T21:26:20.920Z,13.51
2022-11-16T21:28:47.638Z,13.57
2022-11-16T21:31:20.759Z,13.49
2022-11-16T21:33:48.641Z,13.40
2022-11-16T21:36:18.881Z,13.49
2022-11-16T21:38:45.911Z,13.48
2022-11-16T21:41:14.626Z,13.46
2022-11-16T21:43:41.737Z,13.52
2022-11-16T21:46:13.350Z,13.49
2022-11-16T21:48:41.114Z,13.53
2022-11-16T21:51:14.893Z,13.47
2022-11-16T21:53:42.046Z,13.39
2022-11-16T21:56:13.102Z,13.52
2022-11-16T21:58:40.303Z,13.52
2022-11-16T22:01:07.347Z,13.49
2022-11-16T22:03:34.427Z,13.36
2022-11-16T22:06:21.884Z,13.37
2022-11-16T22:08:48.945Z,13.51
2022-11-16T22:11:16.661Z,13.55
2022-11-16T22:13:43.849Z,13.39
2022-11-16T22:16:12.558Z,13.53
2022-11-16T22:18:39.390Z,13.48
2022-11-16T22:21:06.713Z,13.32
2022-11-16T22:23:34.309Z,13.29
2022-11-16T22:26:03.079Z,13.42
2022-11-16T22:28:30.388Z,13.45
2022-11-16T22:31:01.685Z,13.35
2022-11-16T22:33:29.110Z,13.38
2022-11-16T22:35:56.049Z,13.53
2022-11-16T22:38:23.404Z,13.47
2022-11-16T22:40:54.902Z,13.37
2022-11-16T22:43:24.842Z,13.30
2022-11-16T22:45:51.416Z,13.38
2022-11-16T22:48:18.322Z,13.42
2022-11-16T22:50:45.054Z,13.38
2022-11-16T22:53:11.702Z,13.34
2022-11-16T22:55:38.816Z,13.50
2022-11-16T22:58:06.066Z,13.55
2022-11-16T23:00:38.926Z,13.47
2022-11-16T23:03:07.517Z,13.38
2022-11-16T23:05:34.102Z,13.41
2022-11-16T23:08:00.680Z,13.53
2022-11-16T23:10:27.246Z,13.51
2022-11-16T23:13:12.390Z,13.47
2022-11-16T23:15:51.272Z,13.41
2022-11-16T23:18:19.625Z,13.30
2022-11-16T23:21:08.885Z,13.28
2022-11-16T23:23:53.618Z,13.39
2022-11-16T23:26:41.784Z,13.33
2022-11-16T23:29:10.756Z,13.26
2022-11-16T23:31:38.096Z,13.24
2022-11-16T23:34:05.455Z,13.27
2022-11-16T23:36:32.020Z,13.31
2022-11-16T23:38:58.487Z,13.30
2022-11-16T23:41:43.302Z,13.25
2022-11-16T23:44:09.654Z,13.32
2022-11-16T23:46:36.226Z,13.40
2022-11-16T23:49:02.865Z,13.27
2022-11-16T23:51:29.455Z,13.38
2022-11-16T23:53:56.154Z,13.35
2022-11-16T23:56:23.573Z,13.45
2022-11-16T23:58:50.233Z,13.27
